Time;durP1;ratioP1;P1;durP2;ratioP2;P2;SDS_P1;SDS_P2;PMS_P1;PMS_P2;Temp;Humidity;BMP_temperature;BMP_pressure;BME280_temperature;BME280_humidity;BME280_pressure;Samples;Min_cycle;Max_cycle;Signal;HPM_P1;HPM_P2
2021/06/22 00:00:45;;;;;;;1.17;0.82;;;;;;;20.98;67.80;99802.75;5007408;28;20790;-86
2021/06/22 00:03:10;;;;;;;1.53;0.80;;;;;;;20.99;68.00;99814.56;4993194;28;20486;-86
2021/06/22 00:05:36;;;;;;;3.20;1.00;;;;;;;21.04;68.01;99814.41;4992755;28;20450;-86
2021/06/22 00:08:01;;;;;;;3.80;1.40;;;;;;;21.06;68.26;99810.19;4992936;28;20472;-86
2021/06/22 00:10:29;;;;;;;1.30;0.90;;;;;;;21.09;68.25;99816.97;4992272;28;20406;-86
2021/06/22 00:12:56;;;;;;;1.57;0.80;;;;;;;21.07;67.87;99820.06;4976125;28;20839;-86
2021/06/22 00:15:24;;;;;;;1.45;1.00;;;;;;;21.14;68.26;99819.59;5008308;28;20434;-86
2021/06/22 00:17:50;;;;;;;1.83;1.13;;;;;;;21.26;68.42;99813.38;5008053;28;20505;-86
2021/06/22 00:20:16;;;;;;;2.08;1.00;;;;;;;21.33;68.37;99810.91;4982026;28;20506;-86
2021/06/22 00:22:43;;;;;;;5.05;1.70;;;;;;;21.25;68.34;99806.22;4973374;28;20400;-86
2021/06/22 00:25:10;;;;;;;2.22;1.20;;;;;;;21.19;69.05;99798.16;5004529;28;20424;-86
2021/06/22 00:27:36;;;;;;;2.55;1.20;;;;;;;21.21;67.87;99795.88;4982504;28;20414;-86
2021/06/22 00:30:03;;;;;;;2.60;1.30;;;;;;;21.30;68.58;99787.59;4985309;28;20764;-86
2021/06/22 00:32:28;;;;;;;3.30;1.30;;;;;;;21.29;68.23;99780.44;4979044;28;20399;-86
2021/06/22 00:34:54;;;;;;;2.30;1.43;;;;;;;21.29;68.20;99787.91;4991940;28;20422;-86
2021/06/22 00:37:19;;;;;;;4.87;1.60;;;;;;;21.32;68.23;99793.56;4983817;28;20445;-87
2021/06/22 00:39:45;;;;;;;2.63;1.10;;;;;;;21.36;67.26;99805.53;5006906;28;20579;-87
2021/06/22 00:42:12;;;;;;;1.67;1.35;;;;;;;21.40;68.43;99813.97;4992607;28;20414;-87
2021/06/22 00:44:48;;;;;;;2.00;1.58;;;;;;;21.44;68.64;99812.16;4992468;28;20433;-87
2021/06/22 00:47:17;;;;;;;1.48;1.38;;;;;;;21.47;68.35;99814.25;4991198;28;20493;-87
2021/06/22 00:49:44;;;;;;;1.57;1.10;;;;;;;21.52;67.73;99809.34;5004466;28;20406;-87
2021/06/22 00:52:09;;;;;;;1.60;1.27;;;;;;;21.59;67.89;99806.06;4992458;28;20391;-86
2021/06/22 00:54:36;;;;;;;2.75;1.40;;;;;;;21.55;66.87;99794.91;4982283;28;20420;-87
2021/06/22 00:57:05;;;;;;;1.20;1.10;;;;;;;21.53;67.61;99791.66;5004276;28;20404;-87
2021/06/22 00:59:31;;;;;;;2.20;1.33;;;;;;;21.53;67.64;99777.88;5004123;28;20396;-87
2021/06/22 01:01:57;;;;;;;3.08;1.20;;;;;;;21.48;67.46;99778.06;5004174;28;20449;-87
2021/06/22 01:04:22;;;;;;;1.33;1.23;;;;;;;21.46;67.12;99793.31;4984515;28;20414;-87
2021/06/22 01:06:47;;;;;;;1.13;1.03;;;;;;;21.46;67.86;99802.41;4999060;28;20389;-87
2021/06/22 01:09:13;;;;;;;2.63;1.17;;;;;;;21.44;67.38;99807.44;5008772;28;20412;-87
2021/06/22 01:11:39;;;;;;;1.10;1.10;;;;;;;21.37;68.16;99804.38;4991501;28;20497;-87
2021/06/22 01:14:04;;;;;;;3.30;1.20;;;;;;;21.36;68.66;99799.22;5023470;28;20418;-87
2021/06/22 01:16:30;;;;;;;1.77;1.67;;;;;;;21.30;68.91;99790.34;4990515;28;20422;-87
2021/06/22 01:19:04;;;;;;;2.30;1.40;;;;;;;21.20;69.33;99791.53;4992212;28;20398;-87
2021/06/22 01:21:32;;;;;;;2.03;1.40;;;;;;;21.12;68.44;99783.28;4990837;28;20882;-87
2021/06/22 01:24:15;;;;;;;2.00;1.60;;;;;;;20.99;68.79;99776.81;4987376;28;20443;-87
2021/06/22 01:26:45;;;;;;;1.38;1.35;;;;;;;20.98;69.24;99772.44;4973970;28;20399;-87
2021/06/22 01:29:11;;;;;;;3.05;1.60;;;;;;;20.91;69.10;99772.16;4976641;28;20978;-87
2021/06/22 01:31:37;;;;;;;3.07;1.50;;;;;;;20.82;69.75;99771.38;4985454;28;20410;-87
2021/06/22 01:34:02;;;;;;;3.85;1.52;;;;;;;20.82;70.12;99768.63;4990341;28;20462;-87
2021/06/22 01:36:30;;;;;;;1.60;1.40;;;;;;;20.78;70.11;99780.63;5022313;28;20410;-87
2021/06/22 01:38:56;;;;;;;6.50;1.77;;;;;;;20.76;70.32;99777.38;4994624;28;20896;-87
2021/06/22 01:41:21;;;;;;;2.47;1.50;;;;;;;20.79;70.38;99777.53;5007017;28;20482;-87
2021/06/22 01:43:47;;;;;;;2.28;1.70;;;;;;;20.76;70.67;99782.91;5011202;28;20406;-87
2021/06/22 01:46:12;;;;;;;5.53;1.80;;;;;;;20.67;70.99;99780.19;4995570;28;20809;-87
2021/06/22 01:48:38;;;;;;;4.43;2.03;;;;;;;20.64;71.22;99781.66;4995606;28;20402;-87
2021/06/22 01:51:04;;;;;;;7.50;1.80;;;;;;;20.62;70.98;99772.88;4995625;28;20858;-87
2021/06/22 01:53:29;;;;;;;3.88;1.80;;;;;;;20.61;71.01;99775.97;4995007;28;21121;-87
2021/06/22 01:55:54;;;;;;;9.80;2.27;;;;;;;20.62;71.36;99783.91;4995498;28;20468;-87
2021/06/22 01:58:21;;;;;;;3.53;1.65;;;;;;;20.60;70.94;99793.63;5009835;28;20446;-87
2021/06/22 02:00:49;;;;;;;2.97;1.77;;;;;;;20.58;71.40;99787.66;4994273;28;20489;-86
2021/06/22 02:03:17;;;;;;;4.88;1.90;;;;;;;20.59;71.03;99789.25;4995871;28;20418;-86
2021/06/22 02:05:44;;;;;;;2.80;2.20;;;;;;;20.50;71.18;99783.78;4990515;28;20415;-87
2021/06/22 02:08:10;;;;;;;5.68;2.30;;;;;;;20.49;70.89;99776.66;4975650;28;20875;-87
2021/06/22 02:10:35;;;;;;;3.65;2.20;;;;;;;20.50;71.04;99777.47;4990771;28;20396;-87
2021/06/22 02:13:01;;;;;;;3.40;3.10;;;;;;;20.40;71.35;99788.81;5007303;28;20985;-87
2021/06/22 02:15:26;;;;;;;7.80;4.47;;;;;;;20.32;71.42;99790.41;4988731;28;20568;-87
2021/06/22 02:17:52;;;;;;;9.00;5.18;;;;;;;20.12;72.32;99774.56;4995228;28;20979;-87
2021/06/22 02:20:17;;;;;;;9.30;5.73;;;;;;;19.96;72.71;99757.72;4995144;28;20538;-88
2021/06/22 02:22:42;;;;;;;6.37;5.17;;;;;;;20.02;72.77;99745.44;4988332;28;20416;-88
2021/06/22 02:25:10;;;;;;;5.55;5.05;;;;;;;20.01;72.56;99741.06;4975543;28;20442;-88
2021/06/22 02:27:36;;;;;;;7.38;5.93;;;;;;;19.95;72.59;99744.31;4991184;28;20422;-88
2021/06/22 02:30:08;;;;;;;10.45;7.32;;;;;;;19.95;72.23;99752.56;4994843;28;20886;-87
2021/06/22 02:32:35;;;;;;;10.57;9.13;;;;;;;19.95;71.70;99747.06;4992671;28;20751;-87
2021/06/22 02:35:00;;;;;;;10.52;9.48;;;;;;;19.91;71.99;99746.91;4994641;28;20414;-87
2021/06/22 02:37:26;;;;;;;11.10;10.00;;;;;;;19.91;72.20;99754.34;4994468;28;20394;-87
2021/06/22 02:39:51;;;;;;;10.13;9.23;;;;;;;19.98;71.65;99758.22;4994221;28;20941;-88
2021/06/22 02:42:17;;;;;;;10.20;9.30;;;;;;;19.98;71.92;99757.41;4993895;28;20397;-87
2021/06/22 02:44:42;;;;;;;11.23;10.20;;;;;;;19.89;72.00;99746.41;4994670;28;20870;-88
2021/06/22 02:47:08;;;;;;;12.85;10.98;;;;;;;19.94;71.83;99742.69;4994618;28;20434;-88
2021/06/22 02:49:33;;;;;;;12.30;11.00;;;;;;;19.98;71.56;99744.47;5007225;28;20484;-88
2021/06/22 02:51:58;;;;;;;12.37;11.23;;;;;;;19.99;71.81;99756.28;4999100;28;20404;-87
2021/06/22 02:54:25;;;;;;;11.38;10.40;;;;;;;20.02;71.73;99758.41;4975209;28;20491;-87
2021/06/22 02:56:50;;;;;;;12.23;11.05;;;;;;;20.06;71.82;99775.84;4984197;28;20402;-87
2021/06/22 02:59:16;;;;;;;13.33;12.03;;;;;;;20.10;71.15;99771.31;4994324;28;20886;-87
2021/06/22 03:01:42;;;;;;;12.73;11.63;;;;;;;20.12;70.79;99758.06;4993207;28;20394;-87
2021/06/22 03:04:07;;;;;;;15.07;13.53;;;;;;;20.06;70.89;99753.84;4993651;28;20897;-88
2021/06/22 03:06:32;;;;;;;14.87;13.33;;;;;;;20.00;71.05;99757.88;4994888;28;20869;-88
2021/06/22 03:08:57;;;;;;;15.48;13.13;;;;;;;19.97;71.00;99736.53;4994212;28;20403;-88
2021/06/22 03:11:24;;;;;;;13.93;12.70;;;;;;;19.91;71.08;99735.91;4994333;28;20410;-88
2021/06/22 03:13:49;;;;;;;14.90;13.63;;;;;;;19.87;71.08;99732.19;4982110;28;20439;-88
2021/06/22 03:16:14;;;;;;;15.20;13.80;;;;;;;19.92;70.80;99717.47;4991158;28;20846;-88
2021/06/22 03:18:40;;;;;;;15.27;13.77;;;;;;;19.71;71.12;99714.56;4993880;28;20461;-87
2021/06/22 03:21:05;;;;;;;14.73;13.47;;;;;;;19.72;70.89;99724.44;4993925;28;20398;-88
2021/06/22 03:23:30;;;;;;;14.80;13.40;;;;;;;19.62;71.21;99727.50;4996263;28;20460;-88
2021/06/22 03:25:55;;;;;;;15.43;14.03;;;;;;;19.62;71.09;99739.28;4992702;28;20456;-88
2021/06/22 03:28:21;;;;;;;16.77;13.97;;;;;;;19.63;70.77;99735.41;4993482;28;20901;-88
2021/06/22 03:30:47;;;;;;;17.52;14.32;;;;;;;19.60;71.22;99725.03;4994837;28;20433;-88
2021/06/22 03:33:12;;;;;;;17.30;15.50;;;;;;;19.68;71.18;99738.00;4993400;28;20414;-88
2021/06/22 03:35:38;;;;;;;15.77;14.17;;;;;;;19.78;70.91;99736.06;4993519;28;20414;-88
2021/06/22 03:38:04;;;;;;;16.73;15.20;;;;;;;19.84;70.54;99743.81;4992351;28;20399;-88
2021/06/22 03:40:29;;;;;;;15.55;14.05;;;;;;;19.83;70.41;99747.69;4983081;28;20436;-88
2021/06/22 03:42:54;;;;;;;16.83;15.17;;;;;;;19.90;70.37;99747.22;4974209;28;20435;-88
2021/06/22 03:45:20;;;;;;;16.60;14.90;;;;;;;19.85;70.14;99750.13;4996109;28;20442;-88
2021/06/22 03:47:45;;;;;;;16.27;14.77;;;;;;;19.76;70.39;99761.13;4993519;28;20394;-87
2021/06/22 03:50:12;;;;;;;16.58;15.07;;;;;;;19.67;71.04;99758.38;4985058;28;20415;-87
2021/06/22 03:52:37;;;;;;;17.00;15.40;;;;;;;19.72;70.89;99746.41;4973712;28;20895;-88
2021/06/22 03:57:48;;;;;;;16.73;14.90;;;;;;;19.78;70.59;99752.56;4993596;28;20983;-87
2021/06/22 04:00:13;;;;;;;15.43;13.82;;;;;;;19.81;70.34;99762.91;4991249;28;20462;-88
2021/06/22 04:02:39;;;;;;;14.67;13.17;;;;;;;19.88;69.73;99763.25;4991856;28;20382;-87
2021/06/22 04:05:04;;;;;;;13.23;11.93;;;;;;;19.82;69.74;99770.84;4991957;28;20430;-87
2021/06/22 04:07:29;;;;;;;12.63;11.38;;;;;;;19.91;69.58;99777.16;4992050;28;20393;-87
2021/06/22 04:09:55;;;;;;;11.70;10.60;;;;;;;19.71;69.03;99774.22;4992916;28;21014;-87
2021/06/22 04:12:20;;;;;;;12.30;11.00;;;;;;;19.51;69.59;99781.94;4992995;28;20414;-88
2021/06/22 04:14:45;;;;;;;11.13;10.03;;;;;;;19.46;69.44;99779.34;5007120;28;20416;-87
2021/06/22 04:17:10;;;;;;;11.93;9.90;;;;;;;19.54;69.52;99781.31;5012434;28;20401;-88
2021/06/22 04:19:36;;;;;;;11.00;9.90;;;;;;;19.64;69.48;99775.50;5006132;28;20416;-88
2021/06/22 04:22:02;;;;;;;10.82;9.38;;;;;;;19.44;69.39;99781.59;4978387;28;20537;-89
2021/06/22 04:24:27;;;;;;;11.07;9.70;;;;;;;19.25;69.64;99780.22;4991472;28;20391;-88
2021/06/22 04:26:52;;;;;;;10.13;9.20;;;;;;;19.20;70.05;99778.41;4990262;28;20478;-87
2021/06/22 04:29:18;;;;;;;10.37;9.47;;;;;;;19.20;70.20;99778.41;4986522;28;20504;-88
2021/06/22 04:31:43;;;;;;;12.48;10.00;;;;;;;19.28;69.76;99779.59;4997097;28;20425;-87
2021/06/22 04:34:08;;;;;;;11.50;9.47;;;;;;;19.21;69.71;99793.78;4989834;28;20410;-88
2021/06/22 04:36:34;;;;;;;11.77;10.67;;;;;;;19.05;70.49;99795.34;4990351;28;20414;-87
2021/06/22 04:38:59;;;;;;;10.10;9.30;;;;;;;19.13;70.04;99797.31;4975339;28;20436;-88
2021/06/22 04:41:24;;;;;;;11.17;10.03;;;;;;;19.27;69.69;99798.00;5015058;28;20494;-85
2021/06/22 04:43:50;;;;;;;10.68;9.80;;;;;;;19.46;69.59;99806.03;4986574;28;20410;-85
2021/06/22 04:46:15;;;;;;;10.30;9.33;;;;;;;19.54;69.52;99806.03;4981247;28;20413;-85
2021/06/22 04:48:40;;;;;;;10.17;9.33;;;;;;;19.44;69.45;99811.00;4994128;28;20418;-87
2021/06/22 04:51:06;;;;;;;10.35;8.98;;;;;;;19.37;69.22;99811.44;4989990;28;20426;-88
2021/06/22 04:53:31;;;;;;;10.50;9.60;;;;;;;19.26;69.53;99812.88;4991104;28;20505;-94
2021/06/22 04:55:56;;;;;;;10.50;9.50;;;;;;;19.39;69.58;99820.19;4988286;28;20462;-92
2021/06/22 04:58:21;;;;;;;11.07;9.97;;;;;;;19.52;69.02;99822.06;4979009;28;20776;-93
2021/06/22 05:00:47;;;;;;;13.83;10.43;;;;;;;19.58;68.88;99819.97;4990964;28;20410;-92
2021/06/22 05:03:12;;;;;;;12.93;10.00;;;;;;;19.55;68.70;99829.66;4987981;28;20495;-91
2021/06/22 05:05:37;;;;;;;11.63;10.00;;;;;;;19.63;68.93;99833.53;4984260;28;20402;-90
2021/06/22 05:08:03;;;;;;;10.83;9.73;;;;;;;19.73;68.91;99840.66;4990996;28;20409;-93
2021/06/22 05:10:28;;;;;;;11.25;10.13;;;;;;;19.78;68.45;99849.59;4987678;28;20825;-92
2021/06/22 05:12:54;;;;;;;11.37;10.17;;;;;;;19.75;68.22;99847.50;4990044;28;20414;-92
2021/06/22 05:15:20;;;;;;;10.57;9.73;;;;;;;19.59;68.86;99844.34;4987763;28;20418;-89
2021/06/22 05:17:45;;;;;;;11.15;9.40;;;;;;;19.71;69.02;99846.50;4997788;28;21005;-91
2021/06/22 05:20:11;;;;;;;11.40;10.30;;;;;;;19.80;68.41;99846.50;5009620;28;20410;-91
2021/06/22 05:22:36;;;;;;;11.70;9.60;;;;;;;19.73;69.09;99841.47;4986556;28;20412;-91
2021/06/22 05:25:03;;;;;;;10.93;9.83;;;;;;;19.73;68.56;99846.16;4989278;28;20421;-90
2021/06/22 05:27:28;;;;;;;11.45;10.35;;;;;;;19.69;68.22;99854.28;4988258;28;20905;-90
2021/06/22 05:29:54;;;;;;;12.13;10.87;;;;;;;19.49;68.82;99849.34;4981182;28;20445;-89
2021/06/22 05:32:19;;;;;;;11.13;10.03;;;;;;;19.53;68.83;99853.88;4989154;28;20418;-88
2021/06/22 05:34:44;;;;;;;10.87;9.77;;;;;;;19.59;68.67;99860.06;4987062;28;20434;-88
2021/06/22 05:37:10;;;;;;;10.73;9.83;;;;;;;19.24;69.50;99856.31;4987251;28;20508;-89
2021/06/22 05:39:35;;;;;;;10.63;9.13;;;;;;;19.43;69.35;99867.13;4990160;28;20433;-93
2021/06/22 05:42:01;;;;;;;10.33;9.23;;;;;;;19.61;68.56;99871.53;4991244;28;20407;-93
2021/06/22 05:44:27;;;;;;;9.65;8.65;;;;;;;19.46;68.77;99872.78;4991340;28;20468;-93
2021/06/22 05:46:52;;;;;;;10.03;9.23;;;;;;;19.28;69.42;99871.06;4988866;28;20410;-90
2021/06/22 05:49:17;;;;;;;9.98;9.10;;;;;;;19.39;68.88;99868.84;5020406;28;21072;-90
2021/06/22 05:51:43;;;;;;;9.70;8.60;;;;;;;19.40;69.19;99868.53;4992056;28;20397;-93
2021/06/22 05:54:08;;;;;;;9.83;8.83;;;;;;;19.45;69.26;99870.34;4988889;28;20466;-93
2021/06/22 05:56:33;;;;;;;9.20;8.37;;;;;;;19.40;69.44;99878.69;4993495;28;20437;-93
2021/06/22 05:58:59;;;;;;;10.15;8.93;;;;;;;19.43;69.37;99881.66;4992220;28;20866;-93
2021/06/22 06:01:24;;;;;;;9.20;8.17;;;;;;;19.38;69.34;99890.00;5007204;28;20426;-92
2021/06/22 06:03:49;;;;;;;10.87;8.73;;;;;;;19.42;69.25;99895.72;4992055;28;20391;-92
2021/06/22 06:06:14;;;;;;;10.17;8.80;;;;;;;19.45;69.28;99892.34;4990564;28;20406;-94
2021/06/22 06:08:40;;;;;;;13.77;9.80;;;;;;;19.47;69.11;99890.06;5007426;28;20402;-94
2021/06/22 06:11:05;;;;;;;11.07;9.80;;;;;;;19.50;69.10;99889.44;4992260;28;20882;-93
2021/06/22 06:13:35;;;;;;;11.17;8.77;;;;;;;19.48;69.38;99887.03;4993375;28;20405;-94
2021/06/22 06:16:01;;;;;;;14.45;10.95;;;;;;;19.37;69.78;99888.38;4994790;28;20417;-92
2021/06/22 06:18:26;;;;;;;15.20;11.32;;;;;;;19.40;69.87;99878.69;5011049;28;20414;-93
2021/06/22 06:20:52;;;;;;;13.63;10.63;;;;;;;19.49;69.43;99883.16;4994392;28;20409;-93
2021/06/22 06:23:19;;;;;;;13.67;10.93;;;;;;;19.45;70.17;99887.66;4995466;28;20535;-93
2021/06/22 06:25:45;;;;;;;21.65;12.75;;;;;;;19.38;70.13;99889.19;4993899;28;20456;-93
2021/06/22 06:28:25;;;;;;;18.92;12.50;;;;;;;19.47;70.29;99879.06;4996096;28;20489;-92
2021/06/22 06:30:50;;;;;;;23.98;14.90;;;;;;;19.48;70.57;99884.28;4997495;28;20453;-91
2021/06/22 06:33:16;;;;;;;23.20;14.73;;;;;;;19.54;70.77;99884.94;4993765;28;20403;-91
2021/06/22 06:35:41;;;;;;;22.07;14.17;;;;;;;19.59;70.70;99891.09;4995039;28;20422;-91
2021/06/22 06:38:08;;;;;;;24.10;15.90;;;;;;;19.57;71.22;99887.84;4993785;28;20395;-90
2021/06/22 06:40:35;;;;;;;26.10;17.73;;;;;;;19.53;71.60;99886.03;4983660;28;20420;-87
2021/06/22 06:43:00;;;;;;;29.17;17.70;;;;;;;19.55;71.69;99895.63;4975367;28;20400;-91
2021/06/22 06:45:26;;;;;;;27.92;18.40;;;;;;;19.59;71.18;99896.59;4992253;28;20409;-92
2021/06/22 06:47:51;;;;;;;28.17;18.37;;;;;;;19.71;71.11;99904.25;5001944;28;20897;-92
2021/06/22 06:50:16;;;;;;;23.00;14.83;;;;;;;19.87;70.51;99916.41;4994599;28;20509;-92
2021/06/22 06:52:42;;;;;;;24.83;16.07;;;;;;;19.90;70.08;99917.72;5010231;28;20766;-91
2021/06/22 06:55:25;;;;;;;20.95;14.98;;;;;;;19.92;70.27;99921.75;4995319;28;20414;-92
2021/06/22 06:57:52;;;;;;;20.65;15.10;;;;;;;19.89;70.34;99924.34;4995169;28;20449;-93
2021/06/22 07:00:18;;;;;;;22.20;16.38;;;;;;;19.84;70.03;99919.00;4994026;28;20391;-94
2021/06/22 07:02:43;;;;;;;20.58;14.88;;;;;;;19.77;70.67;99918.63;4994254;28;20394;-93
2021/06/22 07:05:09;;;;;;;22.83;16.37;;;;;;;19.82;70.89;99924.00;5010309;28;20390;-94
2021/06/22 07:07:35;;;;;;;19.90;14.13;;;;;;;19.86;71.04;99924.97;4993422;28;20465;-93
2021/06/22 07:10:00;;;;;;;20.40;14.47;;;;;;;19.96;71.04;99939.25;4995063;28;20405;-93
2021/06/22 07:12:25;;;;;;;19.07;14.87;;;;;;;19.87;70.75;99921.91;4995094;28;20485;-93
2021/06/22 07:14:50;;;;;;;18.10;15.57;;;;;;;19.87;70.55;99927.41;4994508;28;20418;-93
2021/06/22 07:17:16;;;;;;;19.40;15.63;;;;;;;19.83;71.54;99922.84;4994340;28;20418;-94
2021/06/22 07:19:41;;;;;;;17.63;14.47;;;;;;;19.83;70.65;99928.34;4993915;28;20406;-93
2021/06/22 07:22:06;;;;;;;19.07;14.13;;;;;;;19.85;70.86;99932.44;4993618;28;20410;-92
2021/06/22 07:24:31;;;;;;;15.80;12.90;;;;;;;19.99;70.74;99935.06;4994350;28;20402;-93
2021/06/22 07:26:57;;;;;;;15.47;12.27;;;;;;;20.18;70.35;99946.59;4994701;28;20478;-93
2021/06/22 07:29:22;;;;;;;14.57;11.27;;;;;;;20.26;69.92;99950.47;4994387;28;20431;-90
2021/06/22 07:31:47;;;;;;;11.10;9.77;;;;;;;20.31;69.83;99942.94;4994534;28;20397;-91
2021/06/22 07:34:12;;;;;;;10.75;8.55;;;;;;;20.20;69.15;99944.31;5026365;28;20818;-90
2021/06/22 07:36:38;;;;;;;8.83;7.83;;;;;;;20.20;69.46;99958.06;4994542;28;20402;-91
2021/06/22 07:39:04;;;;;;;9.43;7.97;;;;;;;20.28;68.84;99949.06;5026054;28;20409;-93
2021/06/22 07:41:29;;;;;;;9.05;7.30;;;;;;;20.29;68.66;99961.69;4992628;28;20418;-92
2021/06/22 07:43:55;;;;;;;8.90;6.90;;;;;;;20.30;68.75;99955.06;4992987;28;20412;-94
2021/06/22 07:46:20;;;;;;;7.47;6.15;;;;;;;20.18;68.96;99952.09;4993400;28;20394;-93
2021/06/22 07:48:46;;;;;;;7.53;6.20;;;;;;;20.32;69.05;99946.50;4993169;28;20391;-93
2021/06/22 07:51:11;;;;;;;7.43;6.22;;;;;;;20.49;68.61;99943.72;4993143;28;20418;-94
2021/06/22 07:53:36;;;;;;;8.77;6.90;;;;;;;20.61;67.60;99943.91;4994099;28;20429;-94
2021/06/22 07:56:02;;;;;;;7.67;6.87;;;;;;;20.68;67.42;99938.75;4993159;28;20425;-93
2021/06/22 07:58:27;;;;;;;10.73;6.03;;;;;;;20.77;67.90;99949.75;4994073;28;21039;-94
2021/06/22 08:00:54;;;;;;;6.80;5.70;;;;;;;20.88;68.01;99945.53;4987251;28;20418;-94
2021/06/22 08:03:24;;;;;;;7.07;6.25;;;;;;;20.91;67.40;99953.16;4993996;28;20418;-93
2021/06/22 08:05:50;;;;;;;7.18;6.28;;;;;;;20.72;66.67;99958.97;4993863;28;20537;-94
2021/06/22 08:08:21;;;;;;;6.80;6.20;;;;;;;20.66;66.74;99961.06;4993974;28;20407;-94
2021/06/22 08:10:56;;;;;;;10.55;7.28;;;;;;;20.73;67.61;99968.84;4991940;28;20445;-92
2021/06/22 08:13:24;;;;;;;9.18;6.25;;;;;;;20.79;67.28;99963.97;5007082;28;20410;-93
2021/06/22 08:15:49;;;;;;;7.80;6.88;;;;;;;20.92;67.45;99965.75;4993346;28;20418;-92
2021/06/22 08:18:15;;;;;;;8.67;7.77;;;;;;;20.91;66.78;99964.16;4992861;28;20402;-90
2021/06/22 08:20:41;;;;;;;10.18;7.88;;;;;;;20.96;66.79;99966.75;5023792;28;20394;-92
2021/06/22 08:23:07;;;;;;;11.57;8.60;;;;;;;21.06;66.68;99960.91;4988324;28;20412;-92
2021/06/22 08:25:33;;;;;;;10.30;8.73;;;;;;;21.03;66.72;99969.81;4973843;28;20400;-92
2021/06/22 08:27:58;;;;;;;12.00;9.03;;;;;;;20.97;66.36;99969.19;4974245;28;20398;-92
2021/06/22 08:30:26;;;;;;;9.93;8.68;;;;;;;20.95;66.92;99973.38;4992714;28;20477;-93
2021/06/22 08:32:52;;;;;;;10.20;8.82;;;;;;;21.04;66.76;99974.19;4992633;28;20478;-92
2021/06/22 08:35:18;;;;;;;11.40;8.10;;;;;;;20.98;67.28;99973.53;4992785;28;20835;-93
2021/06/22 08:37:43;;;;;;;10.30;9.00;;;;;;;21.13;67.15;99981.34;4986974;28;20526;-92
2021/06/22 08:40:11;;;;;;;11.27;9.00;;;;;;;21.13;66.59;99984.09;4990920;28;20406;-91
2021/06/22 08:42:37;;;;;;;11.90;9.40;;;;;;;20.84;66.23;99994.94;4992697;28;20399;-92
2021/06/22 08:45:06;;;;;;;14.00;11.15;;;;;;;20.87;66.77;99988.78;4989012;28;20404;-91
2021/06/22 08:47:32;;;;;;;14.38;10.60;;;;;;;20.94;67.19;99989.13;4997095;28;20418;-92
2021/06/22 08:49:58;;;;;;;12.93;10.00;;;;;;;20.95;67.20;99990.72;4992687;28;20869;-93
2021/06/22 08:52:25;;;;;;;15.40;10.40;;;;;;;20.92;67.43;99993.31;4992603;28;20418;-94
2021/06/22 08:54:53;;;;;;;12.93;10.57;;;;;;;20.87;67.81;99991.53;5006701;28;21830;-91
2021/06/22 08:57:22;;;;;;;15.70;10.90;;;;;;;20.92;67.57;99980.34;4992273;28;20662;-92
2021/06/22 08:59:48;;;;;;;14.85;12.45;;;;;;;20.95;67.79;99992.66;4986040;28;20894;-92
2021/06/22 09:02:24;;;;;;;14.67;12.40;;;;;;;20.89;66.77;99989.25;4993532;28;20413;-92
2021/06/22 09:04:49;;;;;;;13.02;11.52;;;;;;;20.94;67.07;99994.63;4992890;28;20457;-93
2021/06/22 09:07:47;;;;;;;14.33;10.93;;;;;;;20.82;67.98;99997.19;4992107;28;20446;-93
2021/06/22 09:10:26;;;;;;;12.93;10.33;;;;;;;20.68;67.97;100002.06;4990175;28;20403;-92
2021/06/22 09:12:52;;;;;;;13.20;11.33;;;;;;;20.69;68.14;99998.16;4991771;28;20438;-92
2021/06/22 09:15:23;;;;;;;15.85;12.32;;;;;;;20.64;67.71;99990.88;4990089;28;20739;-93
2021/06/22 09:17:49;;;;;;;13.65;11.30;;;;;;;20.72;67.60;99986.50;4993745;28;20432;-92
2021/06/22 09:20:31;;;;;;;13.73;11.73;;;;;;;20.82;67.48;99994.44;4991687;28;20916;-91
2021/06/22 09:23:25;;;;;;;14.33;10.73;;;;;;;20.85;68.26;100001.25;5023627;28;20402;-92
2021/06/22 09:25:54;;;;;;;8.50;7.60;;;;;;;20.73;68.38;100006.59;4991382;28;20865;-93
2021/06/22 09:28:38;;;;;;;9.43;7.60;;;;;;;20.69;69.03;100010.00;5023417;28;20421;-91
2021/06/22 09:31:06;;;;;;;8.83;7.00;;;;;;;20.75;69.04;100018.13;5007266;28;20414;-94
2021/06/22 09:33:40;;;;;;;8.30;7.57;;;;;;;20.73;68.63;100009.34;5008080;28;20398;-93
2021/06/22 09:36:15;;;;;;;8.82;7.53;;;;;;;20.64;68.93;100009.34;4991924;28;20426;-94
2021/06/22 09:38:41;;;;;;;9.03;7.87;;;;;;;20.45;68.63;100011.59;4992509;28;20454;-95
2021/06/22 09:41:18;;;;;;;8.40;7.30;;;;;;;20.36;69.03;100014.31;5008063;28;20406;-95
2021/06/22 09:43:47;;;;;;;10.63;8.77;;;;;;;20.47;69.66;100014.81;4997885;28;20396;-94
2021/06/22 09:46:13;;;;;;;11.83;8.80;;;;;;;20.49;69.27;100012.53;5005021;28;20910;-93
2021/06/22 09:48:46;;;;;;;11.05;8.93;;;;;;;20.50;69.35;100011.44;5020726;28;20395;-93
2021/06/22 09:51:12;;;;;;;9.57;8.57;;;;;;;20.51;69.38;100013.06;4975863;28;20399;-93
2021/06/22 09:53:37;;;;;;;9.35;8.45;;;;;;;20.61;68.18;100015.50;4976911;28;20412;-91
2021/06/22 09:56:05;;;;;;;9.30;8.40;;;;;;;20.68;68.63;100013.09;4999217;28;20436;-89
2021/06/22 09:58:35;;;;;;;9.53;7.77;;;;;;;20.74;68.17;100022.81;4996681;28;20433;-91
2021/06/22 10:01:01;;;;;;;8.88;8.07;;;;;;;20.41;68.96;100019.69;4994322;28;20472;-93
2021/06/22 10:03:35;;;;;;;10.83;8.20;;;;;;;20.62;69.22;100025.38;4998440;28;20396;-92
2021/06/22 10:06:06;;;;;;;8.77;7.88;;;;;;;20.78;68.50;100039.50;4993512;28;20429;-92
2021/06/22 10:08:50;;;;;;;9.32;8.43;;;;;;;21.01;68.81;100041.75;5009668;28;20392;-92
2021/06/22 10:11:39;;;;;;;10.25;9.18;;;;;;;21.22;68.05;100033.69;5000781;28;20402;-92
2021/06/22 10:14:08;;;;;;;10.88;9.50;;;;;;;21.36;67.55;100039.03;4990377;28;20500;-90
2021/06/22 10:16:34;;;;;;;9.15;8.25;;;;;;;21.50;67.66;100048.75;5015210;28;20421;-91
2021/06/22 10:19:03;;;;;;;8.93;8.03;;;;;;;21.69;66.91;100042.84;4998483;28;20548;-90
2021/06/22 10:21:29;;;;;;;8.80;8.00;;;;;;;21.85;65.89;100045.88;4995689;28;20395;-92
2021/06/22 10:23:55;;;;;;;8.35;7.55;;;;;;;21.80;65.56;100040.56;4994933;28;20486;-90
2021/06/22 10:26:25;;;;;;;9.35;8.40;;;;;;;21.76;65.57;100037.66;4995593;28;20398;-92
2021/06/22 10:28:51;;;;;;;10.05;8.93;;;;;;;21.59;66.16;100037.69;4995988;28;20395;-90
2021/06/22 10:31:16;;;;;;;7.20;6.60;;;;;;;21.54;65.56;100038.66;4992851;28;20409;-93
2021/06/22 10:33:41;;;;;;;8.10;5.97;;;;;;;21.83;65.28;100054.50;4995517;28;20460;-93
2021/06/22 10:36:09;;;;;;;8.20;6.90;;;;;;;22.14;64.94;100057.00;4991584;28;20427;-90
2021/06/22 10:38:37;;;;;;;10.13;7.00;;;;;;;22.13;64.29;100056.19;4994313;28;20410;-93
2021/06/22 10:41:03;;;;;;;7.65;6.57;;;;;;;22.13;64.53;100064.47;4995667;28;20395;-92
2021/06/22 10:43:39;;;;;;;6.97;6.38;;;;;;;22.12;65.01;100065.63;4995913;28;20401;-93
2021/06/22 10:46:13;;;;;;;8.13;6.93;;;;;;;22.19;65.07;100074.19;4995804;28;20450;-94
2021/06/22 10:48:39;;;;;;;8.52;7.13;;;;;;;22.01;64.50;100069.06;4995804;28;20398;-94
2021/06/22 10:51:27;;;;;;;7.63;6.95;;;;;;;21.80;65.40;100065.38;4995726;28;20399;-94
2021/06/22 10:53:53;;;;;;;8.50;7.25;;;;;;;21.72;66.96;100064.25;4995264;28;20423;-94
2021/06/22 10:56:20;;;;;;;7.57;6.70;;;;;;;21.62;66.22;100064.59;4995258;28;20497;-93
2021/06/22 10:59:15;;;;;;;7.50;6.80;;;;;;;21.61;66.35;100060.22;5008185;28;20397;-94
2021/06/22 11:01:50;;;;;;;7.78;7.07;;;;;;;21.55;67.43;100056.00;4999725;28;20405;-93
2021/06/22 11:04:16;;;;;;;9.65;8.10;;;;;;;21.41;67.54;100056.19;5015354;28;20717;-87
2021/06/22 11:06:41;;;;;;;10.98;8.65;;;;;;;21.20;68.08;100058.81;5000150;28;20406;-92
2021/06/22 11:09:25;;;;;;;8.50;7.70;;;;;;;21.10;68.64;100061.91;4977642;28;20411;-92
2021/06/22 11:12:19;;;;;;;8.60;7.53;;;;;;;21.06;69.23;100057.31;4984965;28;20414;-89
2021/06/22 11:15:00;;;;;;;9.85;8.82;;;;;;;20.97;69.98;100054.56;4990190;28;20464;-91
2021/06/22 11:17:54;;;;;;;9.52;8.27;;;;;;;21.06;69.56;100054.56;4993330;28;20403;-91
2021/06/22 11:20:19;;;;;;;8.95;8.05;;;;;;;21.15;69.13;100058.16;4994323;28;20457;-91
2021/06/22 11:23:06;;;;;;;9.70;8.23;;;;;;;21.08;69.31;100055.84;4980260;28;20433;-91
2021/06/22 11:25:47;;;;;;;9.37;8.40;;;;;;;21.09;68.77;100057.53;4984780;28;20410;-94
2021/06/22 11:28:13;;;;;;;8.73;7.50;;;;;;;21.11;68.59;100060.75;4994225;28;20410;-90